Time;durP1;ratioP1;P1;durP2;ratioP2;P2;SDS_P1;SDS_P2;PMS_P1;PMS_P2;Temp;Humidity;BMP_temperature;BMP_pressure;BME280_temperature;BME280_humidity;BME280_pressure;Samples;Min_cycle;Max_cycle;Signal;HPM_P1;HPM_P2
2023/03/27 00:01:10;;;;;;;22.52;12.70;;;6.20;99.90;;;;;;5092236;28;20028;-79
2023/03/27 00:03:36;;;;;;;16.55;10.52;;;6.20;99.90;;;;;;5093148;28;20020;-81
2023/03/27 00:06:06;;;;;;;25.27;14.55;;;6.30;99.90;;;;;;5091988;28;20017;-81
2023/03/27 00:08:32;;;;;;;23.75;12.02;;;6.20;99.90;;;;;;5093241;28;20027;-81
2023/03/27 00:10:59;;;;;;;18.92;11.75;;;6.20;99.90;;;;;;5093137;28;20499;-79
2023/03/27 00:13:25;;;;;;;34.63;18.83;;;6.30;99.90;;;;;;5093320;28;20062;-78
2023/03/27 00:15:54;;;;;;;39.53;20.95;;;6.30;99.90;;;;;;5093282;28;20020;-79
2023/03/27 00:18:20;;;;;;;40.47;22.52;;;6.30;99.90;;;;;;5091769;28;20460;-78
2023/03/27 00:20:46;;;;;;;27.23;12.98;;;6.40;99.90;;;;;;5092947;28;20465;-79
2023/03/27 00:23:12;;;;;;;18.98;11.55;;;6.40;99.90;;;;;;5091721;28;20085;-79
2023/03/27 00:25:39;;;;;;;23.77;13.35;;;6.30;99.90;;;;;;5091716;28;20074;-78
2023/03/27 00:28:07;;;;;;;19.50;10.38;;;6.30;99.90;;;;;;5091598;28;20051;-77
2023/03/27 00:30:34;;;;;;;24.10;10.60;;;6.30;99.90;;;;;;5091690;28;20024;-76
2023/03/27 00:33:00;;;;;;;18.08;9.48;;;6.30;99.90;;;;;;5091527;28;20050;-78
2023/03/27 00:35:28;;;;;;;19.63;10.02;;;6.30;99.90;;;;;;5091598;28;20074;-78
2023/03/27 00:37:54;;;;;;;18.20;9.82;;;6.30;99.90;;;;;;5091934;28;20024;-78
2023/03/27 00:40:20;;;;;;;20.20;10.18;;;6.30;99.90;;;;;;5091586;28;20107;-79
2023/03/27 00:42:49;;;;;;;18.13;11.20;;;6.30;99.90;;;;;;5091335;28;20063;-78
2023/03/27 00:45:25;;;;;;;17.67;10.50;;;6.30;99.90;;;;;;5092706;28;20074;-78
2023/03/27 00:47:55;;;;;;;19.23;10.20;;;6.30;99.90;;;;;;5091331;28;20127;-78
2023/03/27 00:50:26;;;;;;;18.83;10.05;;;6.30;99.90;;;;;;5096675;28;20085;-80
2023/03/27 00:52:57;;;;;;;21.55;11.10;;;6.30;99.90;;;;;;5096543;28;20161;-77
2023/03/27 00:55:25;;;;;;;17.83;11.27;;;6.30;99.90;;;;;;5095253;28;20072;-79
2023/03/27 00:57:58;;;;;;;55.13;30.63;;;6.40;99.90;;;;;;5095001;28;20031;-79
2023/03/27 01:00:25;;;;;;;98.30;47.00;;;6.30;99.90;;;;;;5095264;28;20027;-80
2023/03/27 01:02:50;;;;;;;35.22;18.08;;;6.30;99.90;;;;;;5095050;28;20118;-80
2023/03/27 01:05:18;;;;;;;34.03;18.70;;;6.20;99.90;;;;;;5095046;28;20020;-79
2023/03/27 01:07:47;;;;;;;23.00;12.48;;;6.30;99.90;;;;;;5096304;28;20028;-78
2023/03/27 01:10:14;;;;;;;25.58;12.82;;;6.20;99.90;;;;;;5094944;28;20027;-80
2023/03/27 01:12:40;;;;;;;24.20;13.18;;;6.20;99.90;;;;;;5094909;28;20020;-78
2023/03/27 01:15:15;;;;;;;41.28;21.25;;;6.20;99.90;;;;;;5094746;28;20040;-80
2023/03/27 01:18:08;;;;;;;37.63;21.15;;;6.30;99.90;;;;;;5094523;28;20028;-79
2023/03/27 01:20:43;;;;;;;;;;;6.30;99.90;;;;;;5095230;28;20035;-80
2023/03/27 01:23:31;;;;;;;24.70;13.68;;;6.30;99.90;;;;;;5094615;28;19929;-78
2023/03/27 01:26:16;;;;;;;22.13;13.48;;;6.30;99.90;;;;;;5096018;28;20024;-78
2023/03/27 01:29:16;;;;;;;25.17;14.27;;;6.30;99.90;;;;;;5094517;28;20032;-79
2023/03/27 01:32:06;;;;;;;23.42;13.20;;;6.20;99.90;;;;;;5087661;28;20028;-78
2023/03/27 01:34:41;;;;;;;22.60;12.43;;;6.20;99.90;;;;;;5089180;28;20092;-80
2023/03/27 01:37:36;;;;;;;21.02;11.05;;;6.20;99.90;;;;;;5094338;28;20028;-78
2023/03/27 01:40:18;;;;;;;22.35;11.43;;;6.20;99.90;;;;;;5095846;28;20027;-80
2023/03/27 01:42:58;;;;;;;22.30;10.55;;;6.20;99.90;;;;;;5094277;28;20058;-78
2023/03/27 01:45:36;;;;;;;22.30;11.20;;;6.20;99.90;;;;;;5095588;28;20065;-80
2023/03/27 01:48:24;;;;;;;21.60;12.32;;;6.10;99.90;;;;;;5094228;28;20048;-80
2023/03/27 01:50:57;;;;;;;18.23;11.57;;;6.10;99.90;;;;;;5094136;28;20032;-78
2023/03/27 01:53:33;;;;;;;28.90;13.23;;;6.10;99.90;;;;;;5095190;28;20117;-80
2023/03/27 01:56:17;;;;;;;21.23;12.50;;;6.00;99.90;;;;;;5094002;28;20127;-78
2023/03/27 01:58:48;;;;;;;23.52;13.43;;;6.00;99.90;;;;;;5095288;28;20392;-80
2023/03/27 02:01:19;;;;;;;17.67;10.63;;;6.00;99.90;;;;;;5093819;28;20024;-79
2023/03/27 02:03:49;;;;;;;16.38;11.02;;;6.00;99.90;;;;;;5093942;28;20055;-80
2023/03/27 02:06:28;;;;;;;19.05;9.95;;;6.00;99.90;;;;;;5093773;28;20024;-80
2023/03/27 02:09:15;;;;;;;16.77;9.70;;;6.00;99.90;;;;;;5094059;28;20016;-78
2023/03/27 02:11:49;;;;;;;14.10;8.63;;;6.00;99.90;;;;;;5093662;28;20032;-80
2023/03/27 02:14:20;;;;;;;16.25;9.38;;;6.00;99.90;;;;;;5093500;28;20490;-78
2023/03/27 02:16:51;;;;;;;15.65;9.80;;;5.90;99.90;;;;;;5094028;28;20081;-78
2023/03/27 02:19:33;;;;;;;18.17;9.48;;;6.00;99.90;;;;;;5093907;28;20065;-77
2023/03/27 02:21:59;;;;;;;20.80;10.00;;;5.90;99.90;;;;;;5094893;28;20481;-79
2023/03/27 02:24:25;;;;;;;16.73;9.18;;;5.90;99.90;;;;;;5093721;28;20063;-78
2023/03/27 02:26:58;;;;;;;15.05;9.60;;;5.90;99.90;;;;;;5093337;28;20427;-80
2023/03/27 02:29:45;;;;;;;16.92;10.15;;;5.90;99.90;;;;;;5093409;28;20027;-77
2023/03/27 02:32:23;;;;;;;22.02;10.30;;;5.90;99.90;;;;;;5094893;28;20024;-79
2023/03/27 02:35:16;;;;;;;25.02;11.02;;;5.90;99.90;;;;;;5093223;28;20040;-79
2023/03/27 02:38:16;;;;;;;17.48;9.82;;;6.00;99.90;;;;;;5093201;28;20077;-80
2023/03/27 02:41:17;;;;;;;15.50;9.18;;;6.00;99.90;;;;;;5093091;28;20036;-78
2023/03/27 02:43:47;;;;;;;18.08;9.25;;;6.00;99.90;;;;;;5094472;28;20020;-78
2023/03/27 02:46:32;;;;;;;16.10;9.98;;;6.00;99.90;;;;;;5093137;28;20024;-78
2023/03/27 02:49:03;;;;;;;14.93;9.55;;;6.00;99.90;;;;;;5092558;28;20044;-80
2023/03/27 02:51:41;;;;;;;19.63;9.77;;;6.00;99.90;;;;;;5092931;28;20104;-78
2023/03/27 02:54:09;;;;;;;19.38;9.88;;;6.10;99.90;;;;;;5093944;28;20393;-79
2023/03/27 02:56:42;;;;;;;19.83;9.50;;;6.10;99.90;;;;;;5094134;28;20016;-79
2023/03/27 02:59:14;;;;;;;;;;;6.10;99.90;;;;;;5093186;28;20100;-79
2023/03/27 03:01:41;;;;;;;23.75;9.80;;;6.00;99.90;;;;;;5093085;28;19904;-80
2023/03/27 03:04:15;;;;;;;13.43;8.63;;;6.10;99.90;;;;;;5094169;28;20440;-80
2023/03/27 03:06:42;;;;;;;17.20;9.30;;;6.00;99.90;;;;;;5094068;28;20035;-78
2023/03/27 03:09:08;;;;;;;18.48;11.35;;;6.10;99.90;;;;;;5092662;28;20491;-80
2023/03/27 03:11:37;;;;;;;19.88;11.30;;;6.10;99.90;;;;;;5091987;28;20047;-80
2023/03/27 03:14:03;;;;;;;20.27;10.93;;;6.00;99.90;;;;;;5092288;28;20378;-80
2023/03/27 03:16:29;;;;;;;16.00;9.52;;;6.00;99.90;;;;;;5093822;28;20118;-79
2023/03/27 03:18:55;;;;;;;20.10;11.38;;;6.00;99.90;;;;;;5092425;28;20039;-78
2023/03/27 03:21:21;;;;;;;17.05;11.05;;;6.00;99.90;;;;;;5092403;28;20115;-77
2023/03/27 03:23:47;;;;;;;19.67;12.30;;;6.00;99.90;;;;;;5093773;28;20144;-79
2023/03/27 03:26:15;;;;;;;19.75;11.15;;;6.00;99.90;;;;;;5093760;28;20387;-81
2023/03/27 03:28:42;;;;;;;22.73;10.95;;;6.00;99.90;;;;;;5092009;28;20023;-81
2023/03/27 03:31:09;;;;;;;21.00;11.52;;;6.00;99.90;;;;;;5093577;28;20111;-78
2023/03/27 03:33:36;;;;;;;20.23;10.75;;;6.00;99.90;;;;;;5093493;28;20440;-81
2023/03/27 03:36:03;;;;;;;21.20;11.40;;;6.10;99.90;;;;;;5092227;28;20059;-79
2023/03/27 03:38:29;;;;;;;22.08;12.00;;;6.00;99.90;;;;;;5093400;28;20031;-79
2023/03/27 03:40:56;;;;;;;22.27;11.57;;;6.00;99.90;;;;;;5092232;28;20495;-80
2023/03/27 03:43:27;;;;;;;17.13;10.55;;;6.00;99.90;;;;;;5091918;28;20371;-80
2023/03/27 03:45:53;;;;;;;18.35;10.60;;;6.10;99.90;;;;;;5092194;28;20024;-80
2023/03/27 03:48:20;;;;;;;15.18;9.98;;;6.10;99.90;;;;;;5092120;28;20427;-79
2023/03/27 03:50:46;;;;;;;16.55;8.93;;;6.10;99.90;;;;;;5093324;28;20038;-78
2023/03/27 03:53:18;;;;;;;13.00;8.70;;;6.00;99.90;;;;;;5093188;28;20362;-78
2023/03/27 03:55:45;;;;;;;15.52;9.90;;;6.10;99.90;;;;;;5093309;28;20064;-79
2023/03/27 03:58:11;;;;;;;15.82;9.13;;;6.10;99.90;;;;;;5092219;28;20382;-79
2023/03/27 04:00:38;;;;;;;20.40;13.90;;;6.00;99.90;;;;;;5093270;28;20020;-79
2023/03/27 04:03:06;;;;;;;51.20;36.83;;;6.00;99.90;;;;;;5093530;28;20020;-77
2023/03/27 04:05:32;;;;;;;25.90;21.05;;;5.90;99.90;;;;;;5093568;28;20058;-79
2023/03/27 04:07:58;;;;;;;40.33;25.17;;;5.90;99.90;;;;;;5091823;28;20024;-77
2023/03/27 04:10:25;;;;;;;28.10;16.50;;;5.90;99.90;;;;;;5093104;28;20027;-77
2023/03/27 04:12:51;;;;;;;40.22;24.80;;;5.80;99.90;;;;;;5091771;28;20103;-80
2023/03/27 04:15:17;;;;;;;86.57;43.45;;;5.80;99.90;;;;;;5091835;28;20122;-80
2023/03/27 04:17:43;;;;;;;114.28;59.50;;;5.90;99.90;;;;;;5092014;28;20024;-81
2023/03/27 04:20:11;;;;;;;133.50;72.57;;;5.90;99.90;;;;;;5093112;28;20020;-80
2023/03/27 04:22:37;;;;;;;104.15;53.47;;;5.80;99.90;;;;;;5093994;28;20054;-81
2023/03/27 04:25:07;;;;;;;60.25;33.25;;;5.90;99.90;;;;;;5097036;28;20470;-80
2023/03/27 04:27:34;;;;;;;36.38;19.50;;;5.80;99.90;;;;;;5097267;28;20024;-81
2023/03/27 04:30:01;;;;;;;31.70;19.80;;;5.90;99.90;;;;;;5095751;28;20027;-79
2023/03/27 04:32:27;;;;;;;29.52;17.13;;;5.90;99.90;;;;;;5095664;28;20053;-79
2023/03/27 04:34:53;;;;;;;63.70;33.35;;;5.90;99.90;;;;;;5097016;28;20031;-80
2023/03/27 04:37:19;;;;;;;204.45;85.10;;;5.90;99.90;;;;;;5095460;28;20020;-80
2023/03/27 04:39:45;;;;;;;243.20;112.38;;;5.90;99.90;;;;;;5097002;28;20031;-82
2023/03/27 04:42:12;;;;;;;135.95;61.22;;;5.90;99.90;;;;;;5095356;28;20406;-79
2023/03/27 04:44:38;;;;;;;78.45;37.85;;;5.90;99.90;;;;;;5096702;28;20085;-81
2023/03/27 04:47:05;;;;;;;50.28;23.80;;;6.00;99.90;;;;;;5095230;28;20032;-79
2023/03/27 04:49:37;;;;;;;36.65;19.95;;;6.00;99.90;;;;;;5097011;28;20012;-80
2023/03/27 04:52:05;;;;;;;32.63;18.33;;;5.90;99.90;;;;;;5094924;28;20027;-80
2023/03/27 04:54:31;;;;;;;31.92;17.65;;;5.90;99.90;;;;;;5096528;28;20051;-77
2023/03/27 04:56:59;;;;;;;31.63;19.30;;;5.90;99.90;;;;;;5095895;28;20099;-77
2023/03/27 04:59:25;;;;;;;34.85;19.48;;;5.80;99.90;;;;;;5099357;28;20032;-78
2023/03/27 05:01:51;;;;;;;32.42;19.30;;;5.70;99.90;;;;;;5094868;28;20031;-81
2023/03/27 05:04:17;;;;;;;36.90;20.05;;;5.70;99.90;;;;;;5094976;28;20059;-79
2023/03/27 05:06:43;;;;;;;37.53;19.10;;;5.70;99.90;;;;;;5096320;28;20024;-81
2023/03/27 05:09:08;;;;;;;33.25;20.05;;;5.70;99.90;;;;;;5096184;28;20020;-79
2023/03/27 05:11:35;;;;;;;35.50;19.40;;;5.70;99.90;;;;;;5094877;28;20019;-82
2023/03/27 05:14:01;;;;;;;36.55;19.45;;;5.70;99.90;;;;;;5094809;28;20059;-79
2023/03/27 05:16:26;;;;;;;33.67;20.27;;;5.70;99.90;;;;;;5096156;28;20466;-78
2023/03/27 05:18:53;;;;;;;44.45;22.63;;;5.70;99.90;;;;;;5096372;28;20028;-76
2023/03/27 05:21:19;;;;;;;32.90;21.02;;;5.70;99.90;;;;;;5100388;28;20040;-79
2023/03/27 05:23:45;;;;;;;37.33;20.75;;;5.60;99.90;;;;;;5102693;28;20492;-79
2023/03/27 05:26:10;;;;;;;34.53;19.65;;;5.70;99.90;;;;;;5103927;28;20028;-79
2023/03/27 05:28:38;;;;;;;35.28;20.27;;;5.70;99.90;;;;;;5103857;28;20053;-77
2023/03/27 05:31:04;;;;;;;33.47;20.90;;;5.60;99.90;;;;;;5104220;28;20106;-79
2023/03/27 05:33:29;;;;;;;35.30;19.77;;;5.70;99.90;;;;;;5103839;28;20099;-79
2023/03/27 05:35:56;;;;;;;35.95;19.77;;;5.70;99.90;;;;;;5103325;28;20023;-80
2023/03/27 05:38:23;;;;;;;31.75;19.60;;;5.70;99.90;;;;;;5101765;28;20016;-78
2023/03/27 05:40:51;;;;;;;34.25;19.65;;;5.60;99.90;;;;;;5101441;28;20465;-78
2023/03/27 05:43:16;;;;;;;34.30;21.30;;;5.70;99.90;;;;;;5108049;28;20019;-77
2023/03/27 05:45:42;;;;;;;34.17;19.83;;;5.70;99.90;;;;;;5114720;28;20049;-77
2023/03/27 05:48:08;;;;;;;29.65;18.05;;;5.70;99.90;;;;;;5115673;28;20048;-78
2023/03/27 05:50:34;;;;;;;28.00;17.30;;;5.70;99.90;;;;;;5115962;28;20047;-78
2023/03/27 05:53:08;;;;;;;48.40;25.45;;;5.70;99.90;;;;;;5115862;28;20023;-78
2023/03/27 05:55:35;;;;;;;34.58;19.75;;;5.80;99.90;;;;;;5114402;28;20039;-79
2023/03/27 05:58:01;;;;;;;30.63;18.83;;;5.70;99.90;;;;;;5114547;28;20019;-78
2023/03/27 06:00:30;;;;;;;36.53;22.55;;;5.70;99.90;;;;;;5115617;28;20020;-78
2023/03/27 06:02:58;;;;;;;30.00;19.35;;;5.80;99.90;;;;;;5115701;28;20050;-78
2023/03/27 06:05:28;;;;;;;31.90;17.35;;;5.90;99.90;;;;;;5115647;28;20024;-78
2023/03/27 06:07:57;;;;;;;29.00;19.55;;;5.80;99.90;;;;;;5114265;28;20022;-78
2023/03/27 06:10:25;;;;;;;32.70;20.05;;;5.90;99.90;;;;;;5114133;28;20016;-79
2023/03/27 06:13:05;;;;;;;31.35;19.75;;;5.80;99.90;;;;;;5114182;28;20038;-78
2023/03/27 06:15:31;;;;;;;32.95;20.13;;;5.80;99.90;;;;;;5114785;28;20065;-78
2023/03/27 06:17:57;;;;;;;32.45;19.08;;;5.80;99.90;;;;;;5113197;28;20092;-78
2023/03/27 06:20:23;;;;;;;35.40;20.35;;;5.80;99.90;;;;;;5113352;28;20488;-77
2023/03/27 06:22:52;;;;;;;35.88;20.33;;;5.80;99.90;;;;;;5111825;28;20020;-79
2023/03/27 06:25:21;;;;;;;38.20;22.40;;;5.80;99.90;;;;;;5111677;28;20028;-79
2023/03/27 06:27:48;;;;;;;32.33;18.95;;;5.70;99.90;;;;;;5111677;28;20024;-79
2023/03/27 06:30:19;;;;;;;34.38;21.67;;;5.70;99.90;;;;;;5113050;28;20502;-79
2023/03/27 06:32:46;;;;;;;35.42;20.83;;;5.70;99.90;;;;;;5111837;28;20019;-79
2023/03/27 06:35:15;;;;;;;37.22;21.23;;;5.70;99.90;;;;;;5113527;28;20130;-78
2023/03/27 06:37:41;;;;;;;36.28;22.77;;;5.80;99.90;;;;;;5114877;28;20501;-79
2023/03/27 06:40:09;;;;;;;37.92;22.42;;;5.80;99.90;;;;;;5113562;28;20058;-78
2023/03/27 06:42:37;;;;;;;36.45;21.20;;;5.90;99.90;;;;;;5114000;28;20197;-78
2023/03/27 06:45:04;;;;;;;38.88;20.77;;;5.80;99.90;;;;;;5093072;28;20034;-78
2023/03/27 06:47:30;;;;;;;32.72;19.65;;;5.80;99.90;;;;;;5094283;28;20083;-79
2023/03/27 06:49:56;;;;;;;27.27;16.98;;;5.80;99.90;;;;;;5093131;28;20466;-78
2023/03/27 06:52:22;;;;;;;20.00;14.10;;;5.80;99.90;;;;;;5092855;28;20107;-78
2023/03/27 06:54:47;;;;;;;21.15;13.45;;;5.80;99.90;;;;;;5093028;28;20035;-78
2023/03/27 06:57:14;;;;;;;21.48;12.45;;;5.70;99.90;;;;;;5092915;28;20069;-78
2023/03/27 06:59:40;;;;;;;9.70;7.55;;;5.70;99.90;;;;;;5094124;28;20370;-78
2023/03/27 07:02:06;;;;;;;10.93;7.57;;;5.60;99.90;;;;;;5092974;28;20035;-77
2023/03/27 07:04:32;;;;;;;10.55;6.93;;;5.60;99.90;;;;;;5092806;28;20024;-78
2023/03/27 07:06:57;;;;;;;9.93;6.72;;;5.60;99.90;;;;;;5092773;28;20020;-78
2023/03/27 07:09:23;;;;;;;13.60;8.43;;;5.70;99.90;;;;;;5094065;28;20031;-79
2023/03/27 07:11:49;;;;;;;13.07;8.55;;;5.70;99.90;;;;;;5092724;28;20031;-79
2023/03/27 07:14:14;;;;;;;13.13;8.43;;;5.70;99.90;;;;;;5092563;28;20039;-78
2023/03/27 07:16:40;;;;;;;14.18;8.70;;;5.70;99.90;;;;;;5093851;28;20020;-78
2023/03/27 07:19:06;;;;;;;11.40;7.60;;;5.70;99.90;;;;;;5092481;28;20523;-78
2023/03/27 07:21:31;;;;;;;13.75;8.98;;;5.70;99.90;;;;;;5092701;28;20020;-78
2023/03/27 07:23:57;;;;;;;14.25;8.57;;;5.80;99.90;;;;;;5092383;28;20046;-78
2023/03/27 07:26:22;;;;;;;14.73;9.95;;;5.80;99.90;;;;;;5092493;28;20131;-78
2023/03/27 07:28:50;;;;;;;14.80;9.45;;;5.80;99.90;;;;;;5092126;28;20031;-78
2023/03/27 07:31:17;;;;;;;16.98;11.02;;;5.90;99.90;;;;;;5093592;28;20481;-78
2023/03/27 07:33:43;;;;;;;18.90;11.88;;;5.90;99.90;;;;;;5093527;28;20032;-78
2023/03/27 07:36:09;;;;;;;17.10;11.48;;;5.90;99.90;;;;;;5092419;28;20389;-78
2023/03/27 07:38:34;;;;;;;21.73;12.35;;;5.90;99.90;;;;;;5093683;28;20106;-78
2023/03/27 07:41:05;;;;;;;28.27;16.85;;;5.90;99.90;;;;;;5092295;28;20016;-78
2023/03/27 07:43:32;;;;;;;22.77;14.43;;;5.90;99.90;;;;;;5093694;28;20477;-78
2023/03/27 07:45:58;;;;;;;19.60;12.70;;;6.00;99.90;;;;;;5093361;28;20051;-78
2023/03/27 07:48:24;;;;;;;21.80;13.95;;;5.80;99.90;;;;;;5093221;28;20094;-79
2023/03/27 07:50:49;;;;;;;22.67;14.43;;;5.90;99.90;;;;;;5092117;28;20425;-78
2023/03/27 07:53:18;;;;;;;18.98;12.35;;;5.90;99.90;;;;;;5091839;28;20045;-78
2023/03/27 07:55:45;;;;;;;21.08;13.10;;;5.80;99.90;;;;;;5092063;28;20050;-78
2023/03/27 07:58:10;;;;;;;19.98;13.32;;;5.70;99.90;;;;;;5091645;28;20013;-79
2023/03/27 08:00:37;;;;;;;21.45;12.60;;;5.70;99.90;;;;;;5093318;28;20032;-79
2023/03/27 08:03:08;;;;;;;22.70;14.10;;;5.70;99.90;;;;;;5092001;28;20024;-79
2023/03/27 08:05:35;;;;;;;21.08;13.70;;;5.70;99.90;;;;;;5091986;28;20024;-78
2023/03/27 08:08:00;;;;;;;21.30;14.38;;;5.70;99.90;;;;;;5093230;28;20020;-78
2023/03/27 08:10:26;;;;;;;24.17;15.10;;;5.70;99.90;;;;;;5093257;28;20035;-78
2023/03/27 08:12:52;;;;;;;24.92;16.80;;;5.70;99.90;;;;;;5091911;28;20016;-78
2023/03/27 08:15:18;;;;;;;28.63;19.40;;;5.70;99.90;;;;;;5092925;28;20036;-78
2023/03/27 08:17:44;;;;;;;30.15;19.13;;;5.60;99.90;;;;;;5091588;28;20025;-79
2023/03/27 08:20:14;;;;;;;28.60;18.77;;;5.50;99.90;;;;;;5091776;28;20043;-77
2023/03/27 08:22:40;;;;;;;26.55;15.88;;;5.50;99.90;;;;;;5093035;28;20020;-78
2023/03/27 08:25:07;;;;;;;26.10;16.80;;;5.40;99.90;;;;;;5093188;28;20028;-78
2023/03/27 08:27:33;;;;;;;25.48;15.05;;;5.40;99.90;;;;;;5091799;28;20137;-79
2023/03/27 08:30:00;;;;;;;24.55;14.93;;;5.20;99.90;;;;;;5091728;28;20048;-79
2023/03/27 08:32:26;;;;;;;26.45;16.95;;;5.30;99.90;;;;;;5091707;28;20444;-78
2023/03/27 08:34:53;;;;;;;25.65;15.70;;;5.30;99.90;;;;;;5091464;28;20066;-77
2023/03/27 08:37:19;;;;;;;24.73;17.10;;;5.30;99.90;;;;;;5092963;28;20069;-78
2023/03/27 08:39:47;;;;;;;23.40;15.75;;;5.30;99.90;;;;;;5092874;28;20024;-78
2023/03/27 08:42:17;;;;;;;21.10;13.50;;;5.30;99.90;;;;;;5091735;28;20119;-78
2023/03/27 08:44:43;;;;;;;19.20;12.57;;;5.30;99.90;;;;;;5092964;28;20054;-78
2023/03/27 08:47:34;;;;;;;24.75;16.52;;;5.30;99.90;;;;;;5091225;28;20020;-79
2023/03/27 08:50:06;;;;;;;24.00;16.30;;;5.30;99.90;;;;;;5088423;28;20070;-78
2023/03/27 08:52:33;;;;;;;21.50;12.52;;;5.20;99.90;;;;;;5091655;28;20025;-78
2023/03/27 08:55:13;;;;;;;32.47;18.88;;;5.20;99.90;;;;;;5091471;28;20043;-79
2023/03/27 08:57:39;;;;;;;26.90;15.75;;;5.20;99.90;;;;;;5092958;28;20024;-78
2023/03/27 09:00:13;;;;;;;28.02;18.80;;;5.20;99.90;;;;;;5091550;28;20020;-78
2023/03/27 09:03:25;;;;;;;35.42;22.50;;;5.20;99.90;;;;;;5091360;28;20114;-79
2023/03/27 09:06:19;;;;;;;33.08;20.85;;;5.10;99.90;;;;;;5092513;28;20115;-79
2023/03/27 09:09:05;;;;;;;37.15;25.13;;;5.10;99.90;;;;;;5092767;28;20066;-78
2023/03/27 09:11:38;;;;;;;39.85;26.13;;;5.00;99.90;;;;;;5095094;28;20023;-78
2023/03/27 09:14:10;;;;;;;;;;;5.00;99.90;;;;;;5095356;28;20501;-78
2023/03/27 09:16:47;;;;;;;45.83;27.55;;;4.90;99.90;;;;;;5096252;28;19908;-78
2023/03/27 09:19:23;;;;;;;47.22;30.10;;;4.70;99.90;;;;;;5096239;28;20461;-79
2023/03/27 09:21:55;;;;;;;49.53;29.52;;;4.70;99.90;;;;;;5094913;28;20062;-78
2023/03/27 09:24:38;;;;;;;47.85;27.63;;;4.60;99.90;;;;;;5094903;28;20457;-78
2023/03/27 09:27:31;;;;;;;51.65;30.20;;;4.50;99.90;;;;;;5096116;28;20107;-78
2023/03/27 09:30:09;;;;;;;;;;;4.40;99.90;;;;;;5089052;28;20489;-78
2023/03/27 09:32:36;;;;;;;43.00;26.92;;;4.40;99.90;;;;;;5095847;28;20449;-78
2023/03/27 09:35:03;;;;;;;42.95;25.10;;;4.40;99.90;;;;;;5094471;28;20028;-79
2023/03/27 09:37:29;;;;;;;40.60;23.63;;;4.40;99.90;;;;;;5094466;28;20018;-78
2023/03/27 09:39:58;;;;;;;41.63;26.75;;;4.30;99.90;;;;;;5095716;28;20115;-78
2023/03/27 09:42:32;;;;;;;46.42;26.42;;;4.30;99.90;;;;;;5094288;28;20008;-79
2023/03/27 09:45:01;;;;;;;57.97;32.10;;;4.30;99.90;;;;;;5094300;28;20081;-78
2023/03/27 09:47:38;;;;;;;53.50;30.58;;;4.10;99.90;;;;;;5095371;28;20047;-78
2023/03/27 09:50:32;;;;;;;55.95;30.95;;;3.80;99.90;;;;;;5095678;28;20035;-78
2023/03/27 09:53:20;;;;;;;49.67;29.25;;;3.70;99.90;;;;;;5094269;28;20051;-79
2023/03/27 09:55:55;;;;;;;50.17;29.15;;;3.30;99.90;;;;;;5094168;28;20028;-78
2023/03/27 09:58:24;;;;;;;47.22;26.48;;;3.40;99.90;;;;;;5094007;28;20065;-78
2023/03/27 10:01:06;;;;;;;41.45;22.13;;;3.20;99.90;;;;;;5093966;28;20058;-77
2023/03/27 10:03:38;;;;;;;44.40;25.37;;;3.10;99.90;;;;;;5094052;28;20381;-78
2023/03/27 10:06:09;;;;;;;45.13;25.00;;;3.10;99.90;;;;;;5095321;28;20032;-77
2023/03/27 10:08:38;;;;;;;41.85;24.10;;;3.00;99.90;;;;;;5093797;28;20028;-78
2023/03/27 10:11:06;;;;;;;49.00;27.70;;;2.90;99.90;;;;;;5093911;28;20367;-78
2023/03/27 10:13:33;;;;;;;55.88;31.67;;;2.90;99.90;;;;;;5095158;28;20020;-78
2023/03/27 10:16:03;;;;;;;51.50;27.27;;;2.80;99.90;;;;;;5093807;28;20035;-79
2023/03/27 10:18:32;;;;;;;57.83;30.52;;;2.70;99.90;;;;;;5095056;28;20024;-78
2023/03/27 10:21:01;;;;;;;51.30;28.00;;;2.70;99.90;;;;;;5094505;28;20103;-78
2023/03/27 10:23:48;;;;;;;50.55;27.90;;;2.60;99.90;;;;;;5093437;28;20016;-78
2023/03/27 10:26:20;;;;;;;45.35;26.50;;;2.50;99.90;;;;;;5086150;27;20025;-79
2023/03/27 10:28:50;;;;;;;44.15;22.75;;;2.50;99.90;;;;;;5079473;28;20036;-79
2023/03/27 10:31:36;;;;;;;41.97;21.95;;;2.50;99.90;;;;;;5095778;28;20024;-79
2023/03/27 10:34:05;;;;;;;34.60;21.83;;;2.40;99.90;;;;;;5100291;28;20039;-79
2023/03/27 10:36:36;;;;;;;40.13;22.58;;;2.30;99.90;;;;;;5101355;27;20052;-79
2023/03/27 10:39:07;;;;;;;42.95;22.63;;;2.30;99.90;;;;;;5097615;28;20375;-78
2023/03/27 10:41:37;;;;;;;40.72;22.42;;;2.30;99.90;;;;;;5101656;27;20072;-78
2023/03/27 10:44:16;;;;;;;32.00;19.70;;;2.40;99.90;;;;;;5099270;28;20016;-78
2023/03/27 10:46:42;;;;;;;32.42;19.77;;;2.40;99.90;;;;;;5103609;27;20485;-77
2023/03/27 10:49:27;;;;;;;34.50;17.75;;;2.50;99.90;;;;;;5102018;28;20039;-77
2023/03/27 10:52:08;;;;;;;27.92;17.88;;;2.50;99.90;;;;;;5099784;27;20020;-77
2023/03/27 10:54:41;;;;;;;28.85;16.58;;;2.60;99.90;;;;;;5100820;28;20397;-76
2023/03/27 10:57:33;;;;;;;24.02;16.17;;;2.30;99.90;;;;;;5102667;27;20028;-78
2023/03/27 11:00:17;;;;;;;23.88;14.60;;;2.30;99.90;;;;;;5092044;28;20039;-78
2023/03/27 11:02:57;;;;;;;24.25;13.57;;;2.20;99.90;;;;;;5092994;27;20077;-76
2023/03/27 11:05:31;;;;;;;20.45;11.75;;;2.20;99.90;;;;;;5091426;28;20070;-80
2023/03/27 11:08:04;;;;;;;19.45;9.45;;;2.20;99.90;;;;;;5102698;27;20032;-81
2023/03/27 11:10:44;;;;;;;17.33;10.85;;;2.10;99.90;;;;;;5100021;28;20070;-79
2023/03/27 11:13:16;;;;;;;11.50;8.38;;;2.00;99.90;;;;;;5098603;27;20667;-80
2023/03/27 11:15:49;;;;;;;12.30;9.50;;;2.10;99.90;;;;;;5100180;28;20040;-81
2023/03/27 11:18:24;;;;;;;14.15;8.35;;;2.10;99.90;;;;;;5099956;28;20056;-80
2023/03/27 11:20:58;;;;;;;10.85;8.73;;;2.10;99.90;;;;;;5099834;28;20031;-77
2023/03/27 11:23:38;;;;;;;9.05;7.82;;;2.20;99.90;;;;;;5098040;27;20047;-80
2023/03/27 11:26:06;;;;;;;23.65;14.85;;;2.20;99.90;;;;;;5097679;28;20032;-78
2023/03/27 11:28:47;;;;;;;10.15;7.53;;;2.20;99.90;;;;;;5096549;28;20024;-78
2023/03/27 11:31:32;;;;;;;9.93;6.25;;;2.20;99.90;;;;;;5101783;28;20099;-78
2023/03/27 11:34:14;;;;;;;12.40;7.97;;;2.00;99.90;;;;;;5102208;28;20038;-77
2023/03/27 11:36:55;;;;;;;13.57;8.38;;;2.10;99.90;;;;;;5100256;28;20024;-77
2023/03/27 11:39:34;;;;;;;8.43;6.53;;;2.10;99.90;;;;;;5099019;28;20020;-77
2023/03/27 11:42:09;;;;;;;12.70;7.95;;;2.30;99.90;;;;;;5103095;28;20020;-78
2023/03/27 11:44:35;;;;;;;9.40;8.40;;;2.40;99.90;;;;;;5110199;28;20020;-78
2023/03/27 11:47:18;;;;;;;11.07;7.10;;;2.40;99.90;;;;;;5100696;28;20480;-79
2023/03/27 11:49:49;;;;;;;10.80;8.48;;;2.30;99.90;;;;;;5091828;28;20082;-81
2023/03/27 11:52:50;;;;;;;11.43;9.57;;;2.30;99.90;;;;;;5092091;28;20067;-81
2023/03/27 11:55:38;;;;;;;11.23;7.63;;;2.30;99.90;;;;;;5087750;28;20064;-81
2023/03/27 11:58:45;;;;;;;9.00;7.30;;;2.30;99.90;;;;;;5097450;28;20016;-81
2023/03/27 12:01:27;;;;;;;8.90;5.45;;;2.20;99.90;;;;;;5088133;28;20022;-79
2023/03/27 12:04:01;;;;;;;8.67;7.30;;;2.10;99.90;;;;;;5099890;28;20500;-79
2023/03/27 12:06:48;;;;;;;7.25;6.30;;;2.20;99.90;;;;;;5097455;28;20028;-78
2023/03/27 12:09:51;;;;;;;8.02;7.22;;;2.10;99.90;;;;;;5100655;28;20020;-79
2023/03/27 12:12:23;;;;;;;;;;;2.10;99.90;;;;;;5101218;28;20032;-78
2023/03/27 12:14:49;;;;;;;7.65;6.10;;;2.00;99.90;;;;;;5096348;28;19935;-77
2023/03/27 12:17:22;;;;;;;9.13;6.20;;;2.00;97.20;;;;;;5101369;28;20035;-79
2023/03/27 12:19:57;;;;;;;7.90;5.45;;;2.00;97.30;;;;;;5098080;28;20057;-79
2023/03/27 12:22:43;;;;;;;7.03;5.65;;;2.00;97.30;;;;;;5097837;28;20062;-79
2023/03/27 12:25:34;;;;;;;9.48;4.90;;;2.00;95.30;;;;;;5100405;28;20047;-78
2023/03/27 12:28:00;;;;;;;6.45;5.60;;;1.90;91.30;;;;;;5071241;28;20059;-77
2023/03/27 12:30:47;;;;;;;7.65;6.00;;;2.10;95.90;;;;;;5072589;28;20058;-77
2023/03/27 12:33:30;;;;;;;6.63;5.65;;;2.00;94.10;;;;;;5085340;28;20026;-79
2023/03/27 12:35:59;;;;;;;8.05;5.50;;;2.10;93.70;;;;;;5092900;28;20044;-78
2023/03/27 12:38:30;;;;;;;6.60;5.60;;;2.10;87.10;;;;;;5097234;28;20046;-79
2023/03/27 12:41:12;;;;;;;7.78;4.85;;;2.00;85.20;;;;;;5090687;28;20024;-79
2023/03/27 12:43:43;;;;;;;11.10;6.18;;;2.00;84.80;;;;;;5099171;28;20024;-79
2023/03/27 12:46:09;;;;;;;6.82;5.97;;;2.00;84.40;;;;;;5104074;28;20024;-79
2023/03/27 12:49:00;;;;;;;7.47;5.95;;;2.10;86.30;;;;;;5104018;28;20036;-79
2023/03/27 12:51:52;;;;;;;5.75;5.20;;;2.20;87.30;;;;;;5102722;28;20028;-79
2023/03/27 12:54:25;;;;;;;7.40;5.43;;;2.10;82.70;;;;;;5100238;28;20040;-79
2023/03/27 12:57:13;;;;;;;5.13;4.40;;;2.10;83.70;;;;;;5099482;28;20380;-78
2023/03/27 12:59:52;;;;;;;6.78;4.75;;;2.10;82.40;;;;;;5101752;28;20032;-80
2023/03/27 13:02:47;;;;;;;13.68;8.70;;;2.00;83.50;;;;;;5103597;28;20020;-81
2023/03/27 13:05:50;;;;;;;18.67;8.35;;;1.90;81.10;;;;;;5105104;28;20024;-80
2023/03/27 13:08:31;;;;;;;;;;;2.00;82.70;;;;;;5097607;28;20425;-78